createdAt,value
2019-02-16T00:00:00.549Z,50.40
2019-02-16T00:02:30.493Z,52.37
2019-02-16T00:04:58.210Z,53.83
2019-02-16T00:07:25.990Z,52.53
2019-02-16T00:09:53.947Z,51.13
2019-02-16T00:12:21.759Z,52.27
2019-02-16T00:14:50.165Z,50.33
2019-02-16T00:17:18.092Z,53.03
2019-02-16T00:19:46.572Z,52.57
2019-02-16T00:22:22.025Z,46.40
2019-02-16T00:24:57.542Z,48.87
2019-02-16T00:27:28.396Z,52.30
2019-02-16T00:29:56.159Z,55.20
2019-02-16T00:32:23.963Z,54.40
2019-02-16T00:34:51.753Z,54.87
2019-02-16T00:37:20.106Z,53.97
2019-02-16T00:39:48.252Z,54.40
2019-02-16T00:42:16.006Z,54.77
2019-02-16T00:44:43.767Z,53.63
2019-02-16T00:47:11.545Z,52.67
2019-02-16T00:49:39.328Z,55.37
2019-02-16T00:52:07.136Z,56.10
2019-02-16T00:54:35.745Z,53.27
2019-02-16T00:59:39.768Z,49.07
2019-02-16T01:02:13.366Z,50.17
2019-02-16T01:04:42.540Z,49.37
2019-02-16T01:07:11.854Z,50.20
2019-02-16T01:09:40.018Z,50.93
2019-02-16T01:12:07.998Z,52.13
2019-02-16T01:14:35.787Z,52.10
2019-02-16T01:17:07.379Z,51.63
2019-02-16T01:19:49.436Z,48.93
2019-02-16T01:22:19.448Z,47.40
2019-02-16T01:24:47.495Z,47.90
2019-02-16T01:27:16.025Z,47.37
2019-02-16T01:29:43.769Z,50.17
2019-02-16T01:32:13.601Z,50.80
2019-02-16T01:34:41.452Z,49.80
2019-02-16T01:37:09.156Z,49.67
2019-02-16T01:39:36.819Z,43.03
2019-02-16T01:42:07.795Z,46.40
2019-02-16T01:44:36.000Z,47.00
2019-02-16T01:47:04.852Z,44.33
2019-02-16T01:49:33.069Z,47.03
2019-02-16T01:52:03.917Z,41.43
2019-02-16T01:54:31.866Z,45.33
2019-02-16T01:56:59.764Z,42.67
2019-02-16T01:59:27.703Z,42.10
2019-02-16T02:01:55.469Z,43.17
2019-02-16T02:04:23.296Z,45.20
2019-02-16T02:06:51.136Z,45.43
2019-02-16T02:09:18.827Z,35.63
2019-02-16T02:11:46.556Z,37.00
2019-02-16T02:14:14.887Z,36.03
2019-02-16T02:16:42.647Z,34.83
2019-02-16T02:19:10.597Z,31.50
2019-02-16T02:21:41.160Z,33.03
2019-02-16T02:24:08.185Z,30.83
2019-02-16T02:26:38.179Z,31.47
2019-02-16T02:29:05.950Z,34.80
2019-02-16T02:31:33.999Z,35.77
2019-02-16T02:34:21.634Z,29.60
2019-02-16T02:36:49.435Z,30.73
2019-02-16T02:39:17.200Z,28.20
2019-02-16T02:41:44.898Z,30.53
2019-02-16T02:44:13.123Z,32.10
2019-02-16T02:46:41.340Z,32.67
2019-02-16T02:49:15.957Z,30.00
2019-02-16T02:51:51.685Z,29.70
2019-02-16T02:54:13.948Z,30.77
2019-02-16T02:56:41.616Z,29.53
2019-02-16T02:59:09.355Z,32.17
2019-02-16T03:01:37.170Z,32.70
2019-02-16T03:04:04.946Z,29.10
2019-02-16T03:06:33.081Z,30.27
2019-02-16T03:09:00.879Z,29.73
2019-02-16T03:11:28.596Z,27.80
2019-02-16T03:13:56.352Z,28.20
2019-02-16T03:16:26.138Z,29.40
2019-02-16T03:18:56.191Z,28.97
2019-02-16T03:21:23.822Z,28.37
2019-02-16T03:23:51.503Z,26.97
2019-02-16T03:26:34.700Z,30.17
2019-02-16T03:29:27.637Z,25.57
2019-02-16T03:32:47.383Z,26.00
2019-02-16T03:35:47.304Z,24.13
2019-02-16T03:38:51.629Z,22.77
2019-02-16T03:41:20.797Z,23.70
2019-02-16T03:43:48.827Z,25.60
2019-02-16T03:46:16.862Z,25.07
2019-02-16T03:48:44.740Z,25.80
2019-02-16T03:51:12.852Z,26.50
2019-02-16T03:53:40.658Z,27.30
2019-02-16T03:56:08.537Z,25.73
2019-02-16T03:58:36.418Z,28.20
2019-02-16T04:01:04.803Z,24.20
2019-02-16T04:03:32.525Z,24.47
2019-02-16T04:06:00.267Z,23.67
2019-02-16T04:08:28.149Z,23.67
2019-02-16T04:10:59.224Z,20.97
2019-02-16T04:13:29.585Z,23.07
2019-02-16T04:16:02.113Z,20.97
2019-02-16T04:18:29.850Z,18.57
2019-02-16T04:20:58.024Z,21.60
2019-02-16T04:23:27.013Z,21.37
2019-02-16T04:25:55.531Z,22.33
2019-02-16T04:28:23.634Z,23.53
2019-02-16T04:30:52.565Z,23.37
2019-02-16T04:33:20.725Z,21.53
2019-02-16T04:35:48.708Z,21.73
2019-02-16T04:38:17.421Z,21.23
2019-02-16T04:40:45.324Z,21.97
2019-02-16T04:43:21.235Z,21.40
2019-02-16T04:45:50.209Z,22.13
2019-02-16T04:48:24.408Z,22.77
2019-02-16T04:50:52.560Z,22.47
2019-02-16T04:53:20.806Z,21.43
2019-02-16T04:55:48.993Z,23.43
2019-02-16T04:58:17.576Z,23.30
2019-02-16T05:00:45.425Z,23.70
2019-02-16T05:03:13.427Z,24.20
2019-02-16T05:05:48.368Z,22.70
2019-02-16T05:08:16.278Z,23.17
2019-02-16T05:10:44.063Z,25.50
2019-02-16T05:13:11.945Z,25.40
2019-02-16T05:15:40.059Z,24.40
2019-02-16T05:18:07.838Z,24.70
2019-02-16T05:20:35.614Z,23.43
2019-02-16T05:23:03.944Z,23.27
2019-02-16T05:25:31.698Z,26.07
2019-02-16T05:27:59.459Z,26.17
2019-02-16T05:30:27.691Z,24.07
2019-02-16T05:32:55.701Z,23.60
2019-02-16T05:35:23.572Z,25.73
2019-02-16T05:37:51.844Z,25.27
2019-02-16T05:40:19.767Z,25.20
2019-02-16T05:42:48.572Z,27.10
2019-02-16T05:45:17.333Z,24.97
2019-02-16T05:47:45.099Z,26.27
2019-02-16T05:50:14.152Z,28.60
2019-02-16T05:52:42.282Z,25.30
2019-02-16T05:55:10.076Z,25.90
2019-02-16T05:57:37.867Z,26.63
2019-02-16T06:00:06.762Z,26.40
2019-02-16T06:02:34.403Z,24.90
2019-02-16T06:05:01.952Z,24.53
2019-02-16T06:07:30.131Z,25.23
2019-02-16T06:09:57.944Z,24.07
2019-02-16T06:12:25.807Z,21.90
2019-02-16T06:14:53.709Z,24.10
2019-02-16T06:17:21.949Z,22.57
2019-02-16T06:19:49.842Z,24.13
2019-02-16T06:22:17.784Z,24.07
2019-02-16T06:24:50.033Z,25.33
2019-02-16T06:27:18.017Z,25.27
2019-02-16T06:29:45.745Z,25.70
2019-02-16T06:32:13.530Z,24.37
2019-02-16T06:34:41.305Z,23.40
2019-02-16T06:37:23.500Z,22.10
2019-02-16T06:40:00.400Z,24.63
2019-02-16T06:42:30.767Z,22.47
2019-02-16T06:44:58.527Z,22.07
2019-02-16T06:47:26.400Z,24.00
2019-02-16T06:49:54.106Z,24.17
2019-02-16T06:52:22.090Z,26.00
2019-02-16T06:54:53.039Z,25.13
2019-02-16T06:57:27.941Z,24.63
2019-02-16T06:59:55.716Z,23.63
2019-02-16T07:02:24.699Z,24.80
2019-02-16T07:04:52.635Z,25.90
2019-02-16T07:07:27.479Z,25.47
2019-02-16T07:10:16.874Z,25.77
2019-02-16T07:13:25.672Z,24.97
2019-02-16T07:19:42.602Z,25.17
2019-02-16T07:22:13.506Z,19.50
2019-02-16T07:29:32.434Z,20.50
2019-02-16T07:36:31.198Z,19.70
2019-02-16T07:39:15.244Z,20.53
2019-02-16T07:41:45.353Z,20.00
2019-02-16T07:44:37.457Z,20.03
2019-02-16T07:47:34.458Z,19.03
2019-02-16T07:50:23.058Z,19.37
2019-02-16T07:53:15.014Z,20.57
2019-02-16T07:56:07.850Z,19.63
2019-02-16T07:58:53.720Z,21.67
2019-02-16T08:01:44.759Z,19.73
2019-02-16T08:04:26.059Z,18.30
2019-02-16T08:07:10.912Z,16.53
2019-02-16T08:09:49.389Z,18.60
2019-02-16T08:12:23.868Z,19.00
2019-02-16T08:15:02.759Z,19.10
2019-02-16T08:17:52.800Z,19.10
2019-02-16T08:20:46.038Z,17.43
2019-02-16T08:23:40.219Z,17.80
2019-02-16T08:26:25.095Z,17.90
2019-02-16T08:29:11.486Z,19.00
2019-02-16T08:31:49.598Z,20.10
2019-02-16T08:34:40.122Z,18.93
2019-02-16T08:37:17.646Z,19.40
2019-02-16T08:40:23.377Z,17.97
2019-02-16T08:43:28.931Z,18.33
2019-02-16T08:46:04.312Z,19.50
2019-02-16T08:48:57.072Z,19.93
2019-02-16T08:51:41.887Z,20.53
2019-02-16T08:54:31.839Z,20.83
2019-02-16T08:57:24.746Z,21.80
2019-02-16T09:00:10.409Z,21.23
2019-02-16T09:02:46.532Z,20.33
2019-02-16T09:05:26.104Z,22.47
2019-02-16T09:08:19.570Z,21.40
2019-02-16T09:11:05.332Z,22.70
2019-02-16T09:13:55.366Z,21.63
2019-02-16T09:16:33.663Z,22.07
2019-02-16T09:19:19.347Z,23.67
2019-02-16T09:22:04.624Z,23.73
2019-02-16T09:24:51.729Z,21.97
2019-02-16T09:27:48.159Z,22.77
2019-02-16T09:30:41.527Z,21.93
2019-02-16T09:33:31.290Z,22.13
2019-02-16T09:36:27.436Z,22.20
2019-02-16T09:39:09.645Z,22.83
2019-02-16T09:41:59.405Z,23.40
2019-02-16T09:45:01.489Z,22.67
2019-02-16T09:47:50.500Z,24.13
2019-02-16T09:50:25.051Z,22.47
2019-02-16T09:53:10.911Z,21.63
2019-02-16T09:56:13.131Z,21.93
2019-02-16T09:59:09.131Z,22.63
2019-02-16T10:01:56.773Z,21.73
2019-02-16T10:04:44.651Z,21.57
2019-02-16T10:07:46.597Z,22.67
2019-02-16T10:10:18.907Z,22.73
2019-02-16T10:13:02.278Z,24.03
2019-02-16T10:15:49.483Z,22.30
2019-02-16T10:18:39.488Z,21.37
2019-02-16T10:21:32.784Z,21.57
2019-02-16T10:24:34.957Z,23.67
2019-02-16T10:27:31.188Z,22.27
2019-02-16T10:30:21.870Z,22.97
2019-02-16T10:32:57.838Z,22.47
2019-02-16T10:36:00.266Z,23.93
2019-02-16T10:38:40.701Z,23.63
2019-02-16T10:41:21.149Z,24.63
2019-02-16T10:44:08.270Z,23.47
2019-02-16T10:46:58.922Z,23.43
2019-02-16T10:49:51.454Z,24.27
2019-02-16T10:52:50.706Z,21.93
2019-02-16T10:55:52.699Z,23.67
2019-02-16T10:58:48.923Z,24.63
2019-02-16T11:01:39.089Z,24.83
2019-02-16T11:04:13.239Z,23.37
2019-02-16T11:06:57.288Z,23.57
2019-02-16T11:09:32.522Z,23.47
2019-02-16T11:12:19.714Z,25.20
2019-02-16T11:15:05.386Z,25.33
2019-02-16T11:17:58.269Z,24.40
2019-02-16T11:20:48.532Z,23.57
2019-02-16T11:23:38.309Z,24.27
2019-02-16T11:26:23.993Z,23.77
2019-02-16T11:29:20.021Z,24.17
2019-02-16T11:32:04.277Z,24.80
2019-02-16T11:34:46.585Z,26.10
2019-02-16T11:37:42.709Z,24.27
2019-02-16T11:40:25.895Z,23.87
2019-02-16T11:43:02.641Z,23.57
2019-02-16T11:45:55.671Z,23.63
2019-02-16T11:48:33.414Z,26.17
2019-02-16T11:51:20.702Z,28.03
2019-02-16T11:54:13.805Z,26.17
2019-02-16T11:57:00.355Z,24.87
2019-02-16T11:59:53.724Z,23.77
2019-02-16T12:02:39.747Z,26.27
2019-02-16T12:05:15.902Z,23.23
2019-02-16T12:07:55.340Z,24.37
2019-02-16T12:10:34.049Z,24.87
2019-02-16T12:13:21.370Z,24.53
2019-02-16T12:16:20.274Z,24.00
2019-02-16T12:18:57.818Z,23.13
2019-02-16T12:21:43.663Z,22.60
2019-02-16T12:24:35.026Z,22.47
2019-02-16T12:27:12.698Z,20.53
2019-02-16T12:30:02.219Z,22.53
2019-02-16T12:32:50.030Z,23.33
2019-02-16T12:35:35.943Z,24.80
2019-02-16T12:38:29.029Z,26.03
2019-02-16T12:41:19.056Z,24.43
2019-02-16T12:44:08.903Z,22.67
2019-02-16T12:46:58.986Z,23.97
2019-02-16T12:49:37.298Z,22.23
2019-02-16T12:52:14.305Z,21.50
2019-02-16T12:55:14.460Z,22.13
2019-02-16T12:57:41.888Z,22.13
2019-02-16T13:00:35.398Z,21.07
2019-02-16T13:03:25.374Z,22.50
2019-02-16T13:06:03.025Z,21.50
2019-02-16T13:08:39.620Z,20.17
2019-02-16T13:11:32.807Z,22.47
2019-02-16T13:14:19.322Z,21.90
2019-02-16T13:17:21.127Z,21.70
2019-02-16T13:20:23.521Z,21.87
2019-02-16T13:22:57.986Z,21.10
2019-02-16T13:25:32.257Z,20.33
2019-02-16T13:28:16.738Z,21.27
2019-02-16T13:31:03.822Z,22.10
2019-02-16T13:33:50.080Z,21.67
2019-02-16T13:36:40.110Z,23.13
2019-02-16T13:39:42.021Z,22.40
2019-02-16T13:42:31.355Z,22.83
2019-02-16T13:45:08.719Z,23.93
2019-02-16T13:48:00.766Z,23.40
2019-02-16T13:50:34.304Z,22.73
2019-02-16T13:53:21.805Z,23.40
2019-02-16T13:56:11.795Z,23.37
2019-02-16T13:59:04.543Z,21.57
2019-02-16T14:01:48.474Z,22.73
2019-02-16T14:04:26.031Z,22.00
2019-02-16T14:07:22.061Z,23.03
2019-02-16T14:10:09.311Z,22.17
2019-02-16T14:12:47.614Z,23.23
2019-02-16T14:15:34.876Z,24.83
2019-02-16T14:18:02.769Z,24.50
2019-02-16T14:20:30.441Z,25.40
2019-02-16T14:22:58.099Z,28.30
2019-02-16T14:25:45.824Z,24.10
2019-02-16T14:28:13.661Z,25.37
2019-02-16T14:30:41.467Z,24.97
2019-02-16T14:33:09.224Z,25.07
2019-02-16T14:35:37.288Z,23.30
2019-02-16T14:38:30.442Z,29.47
2019-02-16T14:40:58.198Z,28.43
2019-02-16T14:43:26.090Z,26.47
2019-02-16T14:45:54.026Z,25.20
2019-02-16T14:48:22.146Z,25.93
2019-02-16T14:50:50.064Z,27.63
2019-02-16T14:53:17.881Z,26.37
2019-02-16T14:55:52.319Z,26.60
2019-02-16T14:58:15.416Z,27.67
2019-02-16T15:00:44.607Z,29.60
2019-02-16T15:03:12.385Z,28.77
2019-02-16T15:05:41.334Z,31.03
2019-02-16T15:08:09.116Z,31.53
2019-02-16T15:10:36.959Z,31.63
2019-02-16T15:13:07.337Z,32.57
2019-02-16T15:15:35.105Z,32.33
2019-02-16T15:18:03.849Z,35.37
2019-02-16T15:20:31.724Z,33.50
2019-02-16T15:22:59.615Z,32.87
2019-02-16T15:25:30.289Z,33.20
2019-02-16T15:27:58.115Z,30.23
2019-02-16T15:30:25.957Z,29.30
2019-02-16T15:32:53.707Z,31.63
2019-02-16T15:35:21.428Z,31.40
2019-02-16T15:37:49.122Z,32.87
2019-02-16T15:40:16.915Z,31.30
2019-02-16T15:42:44.660Z,31.20
2019-02-16T15:45:12.694Z,32.43
2019-02-16T15:47:40.650Z,31.40
2019-02-16T15:50:09.951Z,32.53
2019-02-16T15:52:37.801Z,31.13
2019-02-16T15:55:06.409Z,34.57
2019-02-16T15:57:35.095Z,34.07
2019-02-16T16:00:03.235Z,32.67
2019-02-16T16:02:30.991Z,34.17
2019-02-16T16:04:58.776Z,33.80
2019-02-16T16:07:26.763Z,35.17
2019-02-16T16:10:29.021Z,36.33
2019-02-16T16:13:16.189Z,35.83
2019-02-16T16:15:50.996Z,35.63
2019-02-16T16:18:39.177Z,33.67
2019-02-16T16:21:19.164Z,35.00
2019-02-16T16:24:21.305Z,35.17
2019-02-16T16:27:26.428Z,33.90
2019-02-16T16:30:25.428Z,36.53
2019-02-16T16:33:21.529Z,38.33
2019-02-16T16:36:07.096Z,38.43
2019-02-16T16:38:53.676Z,40.43
2019-02-16T16:41:43.868Z,40.87
2019-02-16T16:44:32.609Z,42.13
2019-02-16T16:47:18.110Z,44.17
2019-02-16T16:50:03.772Z,46.00
2019-02-16T16:52:53.914Z,46.83
2019-02-16T16:55:29.316Z,45.10
2019-02-16T16:58:12.758Z,46.20
2019-02-16T17:01:02.743Z,46.40
2019-02-16T17:03:52.460Z,46.87
2019-02-16T17:06:37.802Z,46.63
2019-02-16T17:09:40.491Z,46.10
2019-02-16T17:12:34.940Z,44.57
2019-02-16T17:15:23.062Z,46.40
2019-02-16T17:17:57.417Z,47.63
2019-02-16T17:20:59.127Z,46.47
2019-02-16T17:23:36.276Z,47.83
2019-02-16T17:26:21.762Z,47.57
2019-02-16T17:29:08.939Z,46.93
2019-02-16T17:31:58.608Z,49.30
2019-02-16T17:35:00.584Z,48.57
2019-02-16T17:37:43.894Z,49.07
2019-02-16T17:40:33.735Z,51.37
2019-02-16T17:43:20.830Z,52.27
2019-02-16T17:45:59.151Z,54.10
2019-02-16T17:48:49.056Z,55.97
2019-02-16T17:51:41.905Z,56.00
2019-02-16T17:54:34.688Z,57.97
2019-02-16T17:57:11.937Z,58.20
2019-02-16T18:00:05.011Z,60.50
2019-02-16T18:03:00.798Z,62.50
2019-02-16T18:05:47.110Z,62.93
2019-02-16T18:08:34.341Z,63.47
2019-02-16T18:11:24.300Z,64.90
2019-02-16T18:13:59.935Z,67.17
2019-02-16T18:16:38.990Z,68.83
2019-02-16T18:19:28.920Z,69.70
2019-02-16T18:22:11.625Z,71.37
2019-02-16T18:25:01.893Z,76.60
2019-02-16T18:27:49.120Z,73.73
2019-02-16T18:30:41.917Z,75.00
2019-02-16T18:33:29.705Z,75.23
2019-02-16T18:36:16.877Z,76.50
2019-02-16T18:39:02.220Z,74.80
2019-02-16T18:41:58.575Z,75.73
2019-02-16T18:44:45.356Z,78.60
2019-02-16T18:47:32.506Z,84.93
2019-02-16T18:50:19.766Z,80.13
2019-02-16T18:53:11.133Z,81.53
2019-02-16T18:56:09.924Z,82.97
2019-02-16T18:59:03.081Z,82.00
2019-02-16T19:02:08.350Z,83.77
2019-02-16T19:04:50.993Z,82.87
2019-02-16T19:07:44.256Z,82.43
2019-02-16T19:10:32.577Z,85.40
2019-02-16T19:13:06.817Z,88.23
2019-02-16T19:15:52.065Z,94.33
2019-02-16T19:18:42.196Z,92.67
2019-02-16T19:21:29.432Z,89.63
2019-02-16T19:24:15.044Z,89.87
2019-02-16T19:27:16.610Z,89.30
2019-02-16T19:30:01.864Z,88.87
2019-02-16T19:32:51.109Z,90.80
2019-02-16T19:35:43.662Z,85.47
2019-02-16T19:38:32.854Z,96.57
2019-02-16T19:41:25.555Z,100.60
2019-02-16T19:44:04.866Z,101.97
2019-02-16T19:46:58.069Z,96.60
2019-02-16T19:49:43.617Z,96.37
2019-02-16T19:52:29.188Z,94.63
2019-02-16T19:55:19.240Z,104.37
2019-02-16T19:58:06.386Z,97.33
2019-02-16T20:01:08.482Z,99.10
2019-02-16T20:04:05.153Z,102.67
2019-02-16T20:06:52.907Z,100.07
2019-02-16T20:09:45.806Z,104.53
2019-02-16T20:12:40.383Z,103.43
2019-02-16T20:15:22.826Z,110.27
2019-02-16T20:18:28.173Z,103.97
2019-02-16T20:21:24.498Z,100.33
2019-02-16T20:24:01.493Z,105.37
2019-02-16T20:26:59.746Z,102.47
2019-02-16T20:29:36.779Z,104.53
2019-02-16T20:32:38.810Z,108.17
2019-02-16T20:35:22.803Z,110.97
2019-02-16T20:38:08.221Z,109.63
2019-02-16T20:41:04.356Z,109.27
2019-02-16T20:43:45.334Z,113.27
2019-02-16T20:46:32.574Z,107.53
2019-02-16T20:49:23.143Z,109.47
2019-02-16T20:51:57.965Z,103.23
2019-02-16T20:54:44.063Z,106.87
2019-02-16T20:57:30.682Z,108.50
2019-02-16T21:00:18.110Z,104.13
2019-02-16T21:03:05.284Z,105.60
2019-02-16T21:06:04.383Z,110.23
2019-02-16T21:08:57.894Z,106.73
2019-02-16T21:11:42.642Z,109.07
2019-02-16T21:14:34.120Z,111.50
2019-02-16T21:17:27.221Z,116.47
2019-02-16T21:20:26.222Z,109.17
2019-02-16T21:23:18.890Z,116.50
2019-02-16T21:25:58.621Z,113.17
2019-02-16T21:28:48.656Z,112.80
2019-02-16T21:31:31.021Z,110.47
2019-02-16T21:34:09.408Z,115.40
2019-02-16T21:36:44.762Z,119.03
2019-02-16T21:39:31.915Z,116.60
2019-02-16T21:42:22.750Z,114.30
2019-02-16T21:45:19.637Z,108.57
2019-02-16T21:48:05.325Z,108.43
2019-02-16T21:50:50.994Z,110.40
2019-02-16T21:53:44.302Z,103.87
2019-02-16T21:56:34.475Z,107.30
2019-02-16T21:59:24.186Z,109.87
2019-02-16T22:01:59.009Z,105.23
2019-02-16T22:04:55.002Z,108.07
2019-02-16T22:07:40.609Z,109.67
2019-02-16T22:10:26.181Z,108.97
2019-02-16T22:13:13.343Z,109.27
2019-02-16T22:15:41.071Z,109.77
2019-02-16T22:18:09.247Z,115.10
2019-02-16T22:20:37.058Z,104.03
2019-02-16T22:23:07.621Z,102.83
2019-02-16T22:25:35.445Z,108.73
2019-02-16T22:28:03.116Z,101.57
2019-02-16T22:30:30.946Z,110.57
2019-02-16T22:32:58.786Z,108.90
2019-02-16T22:35:26.542Z,109.60
2019-02-16T22:37:54.444Z,110.13
2019-02-16T22:40:24.431Z,114.50
2019-02-16T22:42:52.126Z,116.73
2019-02-16T22:45:19.975Z,114.57
2019-02-16T22:47:48.123Z,114.50
2019-02-16T22:50:15.866Z,117.97
2019-02-16T22:52:44.508Z,114.47
2019-02-16T22:55:12.182Z,118.30
2019-02-16T22:57:42.625Z,112.43
2019-02-16T23:00:15.274Z,114.13
2019-02-16T23:02:44.493Z,114.93
2019-02-16T23:05:12.310Z,119.47
2019-02-16T23:07:40.122Z,111.90
2019-02-16T23:10:08.565Z,117.80
2019-02-16T23:12:36.378Z,119.00
2019-02-16T23:15:04.291Z,112.80
2019-02-16T23:17:32.025Z,97.43
2019-02-16T23:19:59.760Z,106.97
2019-02-16T23:22:27.503Z,106.27
2019-02-16T23:24:55.248Z,107.87
2019-02-16T23:27:22.936Z,105.70
2019-02-16T23:29:50.640Z,112.60
2019-02-16T23:32:19.968Z,103.90
2019-02-16T23:34:47.490Z,110.93
2019-02-16T23:37:15.193Z,106.63
2019-02-16T23:39:42.910Z,109.33
2019-02-16T23:42:10.752Z,113.37
2019-02-16T23:44:38.442Z,109.67
2019-02-16T23:47:06.114Z,111.93
2019-02-16T23:49:33.876Z,109.43
2019-02-16T23:52:01.694Z,107.10
2019-02-16T23:54:29.353Z,112.00
2019-02-16T23:56:57.375Z,105.20
2019-02-16T23:59:25.090Z,105.37
